createdAt,value
2023-09-07T00:02:14.677Z,83.00
2023-09-07T00:04:41.601Z,83.10
2023-09-07T00:07:08.461Z,83.40
2023-09-07T00:09:35.259Z,83.60
2023-09-07T00:12:02.112Z,83.60
2023-09-07T00:14:28.896Z,83.70
2023-09-07T00:16:55.807Z,83.80
2023-09-07T00:19:22.775Z,83.80
2023-09-07T00:21:49.564Z,83.90
2023-09-07T00:24:17.304Z,83.90
2023-09-07T00:26:44.172Z,84.10
2023-09-07T00:29:10.994Z,84.30
2023-09-07T00:31:37.985Z,84.50
2023-09-07T00:34:04.943Z,84.50
2023-09-07T00:36:31.704Z,84.70
2023-09-07T00:38:58.501Z,85.00
2023-09-07T00:41:25.284Z,85.30
2023-09-07T00:43:52.060Z,85.30
2023-09-07T00:46:18.841Z,85.50
2023-09-07T00:48:45.959Z,85.60
2023-09-07T00:51:12.828Z,85.70
2023-09-07T00:53:39.730Z,85.70
2023-09-07T00:56:07.739Z,85.90
2023-09-07T00:58:35.162Z,86.10
2023-09-07T01:01:02.133Z,86.20
2023-09-07T01:03:29.106Z,86.20
2023-09-07T01:06:01.949Z,86.40
2023-09-07T01:08:36.383Z,86.30
2023-09-07T01:11:13.287Z,86.30
2023-09-07T01:13:40.159Z,86.30
2023-09-07T01:16:07.661Z,86.20
2023-09-07T01:18:35.149Z,86.30
2023-09-07T01:21:04.325Z,86.30
2023-09-07T01:23:32.000Z,86.30
2023-09-07T01:25:59.322Z,86.60
2023-09-07T01:28:26.309Z,86.80
2023-09-07T01:30:53.934Z,86.80
2023-09-07T01:33:20.754Z,86.90
2023-09-07T01:35:48.008Z,86.80
2023-09-07T01:38:14.863Z,86.80
2023-09-07T01:40:41.655Z,86.90
2023-09-07T01:43:08.662Z,87.00
2023-09-07T01:45:35.464Z,86.90
2023-09-07T01:48:02.373Z,87.20
2023-09-07T01:50:29.219Z,87.30
2023-09-07T01:52:56.045Z,87.50
2023-09-07T01:55:22.895Z,87.50
2023-09-07T01:57:49.808Z,87.40
2023-09-07T02:00:16.635Z,87.50
2023-09-07T02:02:43.632Z,87.70
2023-09-07T02:05:10.819Z,87.70
2023-09-07T02:07:37.742Z,87.90
2023-09-07T02:10:04.823Z,88.00
2023-09-07T02:12:31.648Z,88.10
2023-09-07T02:15:05.433Z,88.20
2023-09-07T02:17:33.489Z,88.30
2023-09-07T02:20:00.386Z,88.40
2023-09-07T02:22:27.248Z,88.60
2023-09-07T02:24:54.339Z,88.60
2023-09-07T02:27:21.238Z,88.60
2023-09-07T02:29:48.117Z,88.70
2023-09-07T02:32:14.993Z,88.80
2023-09-07T02:34:41.892Z,88.80
2023-09-07T02:37:08.668Z,88.90
2023-09-07T02:39:35.485Z,88.80
2023-09-07T02:42:02.258Z,88.90
2023-09-07T02:44:29.953Z,89.10
2023-09-07T02:46:56.739Z,89.00
2023-09-07T02:49:23.453Z,89.00
2023-09-07T02:51:50.297Z,88.90
2023-09-07T02:54:17.026Z,89.10
2023-09-07T02:56:43.808Z,89.30
2023-09-07T02:59:10.578Z,89.60
2023-09-07T03:01:40.531Z,89.60
2023-09-07T03:04:08.509Z,89.70
2023-09-07T03:06:35.278Z,89.80
2023-09-07T03:09:02.244Z,89.70
2023-09-07T03:11:34.662Z,89.80
2023-09-07T03:14:01.526Z,89.80
2023-09-07T03:16:28.450Z,89.90
2023-09-07T03:18:55.473Z,90.20
2023-09-07T03:21:26.505Z,90.20
2023-09-07T03:23:54.209Z,90.20
2023-09-07T03:26:20.974Z,90.20
2023-09-07T03:28:47.714Z,90.30
2023-09-07T03:31:14.528Z,90.30
2023-09-07T03:33:41.533Z,90.30
2023-09-07T03:36:10.464Z,90.30
2023-09-07T03:38:37.392Z,90.20
2023-09-07T03:41:04.148Z,90.20
2023-09-07T03:43:30.903Z,90.30
2023-09-07T03:45:59.191Z,90.30
2023-09-07T03:48:26.043Z,90.30
2023-09-07T03:50:52.817Z,90.20
2023-09-07T03:53:19.689Z,90.20
2023-09-07T03:55:46.662Z,90.20
2023-09-07T03:58:13.478Z,90.20
2023-09-07T04:00:44.242Z,90.20
2023-09-07T04:03:11.553Z,90.20
2023-09-07T04:05:39.845Z,90.20
2023-09-07T04:08:07.095Z,90.20
2023-09-07T04:10:34.010Z,90.20
2023-09-07T04:13:00.816Z,90.30
2023-09-07T04:15:27.691Z,90.30
2023-09-07T04:17:56.291Z,90.30
2023-09-07T04:20:23.406Z,90.20
2023-09-07T04:22:50.227Z,90.30
2023-09-07T04:25:17.117Z,90.40
2023-09-07T04:27:43.883Z,90.40
2023-09-07T04:30:11.223Z,90.40
2023-09-07T04:32:38.427Z,90.40
2023-09-07T04:35:05.604Z,90.50
2023-09-07T04:37:32.477Z,90.50
2023-09-07T04:39:59.229Z,90.50
2023-09-07T04:42:26.039Z,90.50
2023-09-07T04:44:52.853Z,90.50
2023-09-07T04:47:19.638Z,90.50
2023-09-07T04:49:52.648Z,90.50
2023-09-07T04:52:19.528Z,90.60
2023-09-07T04:54:46.459Z,90.50
2023-09-07T04:57:14.897Z,90.60
2023-09-07T04:59:41.937Z,90.70
2023-09-07T05:02:08.725Z,90.70
2023-09-07T05:04:35.635Z,90.70
2023-09-07T05:07:02.511Z,90.80
2023-09-07T05:09:30.856Z,90.80
2023-09-07T05:11:57.808Z,90.80
2023-09-07T05:14:25.650Z,90.80
2023-09-07T05:16:52.682Z,90.90
2023-09-07T05:19:19.816Z,90.90
2023-09-07T05:21:46.696Z,91.00
2023-09-07T05:24:15.909Z,91.00
2023-09-07T05:26:45.674Z,91.10
2023-09-07T05:29:13.084Z,91.20
2023-09-07T05:31:40.301Z,91.20
2023-09-07T05:34:07.259Z,91.20
2023-09-07T05:36:34.091Z,91.30
2023-09-07T05:39:03.052Z,91.40
2023-09-07T05:41:30.067Z,91.40
2023-09-07T05:43:57.201Z,91.20
2023-09-07T05:46:24.137Z,91.20
2023-09-07T05:56:12.610Z,91.30
2023-09-07T06:01:06.833Z,91.40
2023-09-07T06:03:36.274Z,91.50
2023-09-07T06:06:03.985Z,91.60
2023-09-07T06:08:31.251Z,91.60
2023-09-07T06:10:58.224Z,91.70
2023-09-07T06:13:25.048Z,91.80
2023-09-07T06:15:51.926Z,91.80
2023-09-07T06:18:18.740Z,91.90
2023-09-07T06:20:45.639Z,91.90
2023-09-07T06:23:12.443Z,91.90
2023-09-07T06:25:39.441Z,92.00
2023-09-07T06:28:06.625Z,92.10
2023-09-07T06:30:33.545Z,92.20
2023-09-07T06:33:00.992Z,92.30
2023-09-07T06:35:27.920Z,92.40
2023-09-07T06:37:54.737Z,92.40
2023-09-07T06:40:21.537Z,92.50
2023-09-07T06:42:48.466Z,92.60
2023-09-07T06:45:15.412Z,92.60
2023-09-07T06:47:42.184Z,92.60
2023-09-07T06:50:09.116Z,92.70
2023-09-07T06:52:35.891Z,92.60
2023-09-07T06:55:02.718Z,92.60
2023-09-07T06:57:29.955Z,92.50
2023-09-07T06:59:56.756Z,92.50
2023-09-07T07:02:23.654Z,92.40
2023-09-07T07:04:50.661Z,92.20
2023-09-07T07:07:18.412Z,92.00
2023-09-07T07:09:45.356Z,91.50
2023-09-07T07:12:13.408Z,91.40
2023-09-07T07:14:40.587Z,90.50
2023-09-07T07:17:07.574Z,85.60
2023-09-07T07:19:34.507Z,80.30
2023-09-07T07:22:01.417Z,68.70
2023-09-07T07:24:28.373Z,11.40
2023-09-07T07:26:55.501Z,1.00
2023-09-07T07:29:22.486Z,91.90
2023-09-07T07:31:49.438Z,1.00
2023-09-07T07:34:16.234Z,1.00
2023-09-07T07:36:43.540Z,20.70
2023-09-07T07:39:10.404Z,92.60
2023-09-07T07:41:40.162Z,89.90
2023-09-07T07:44:07.972Z,92.50
2023-09-07T07:46:34.916Z,1.00
2023-09-07T07:49:01.803Z,91.30
2023-09-07T07:51:28.585Z,32.20
2023-09-07T07:53:57.353Z,70.30
2023-09-07T07:56:25.136Z,31.00
2023-09-07T07:58:52.040Z,1.00
2023-09-07T08:01:21.445Z,85.30
2023-09-07T08:03:48.743Z,89.30
2023-09-07T08:06:15.772Z,70.00
2023-09-07T08:08:42.675Z,1.00
2023-09-07T08:11:10.372Z,1.00
2023-09-07T08:13:37.872Z,1.00
2023-09-07T08:16:06.073Z,90.60
2023-09-07T08:18:35.925Z,87.00
2023-09-07T08:21:03.637Z,29.90
2023-09-07T08:23:30.633Z,1.00
2023-09-07T08:25:57.788Z,1.00
2023-09-07T08:28:26.645Z,1.00
2023-09-07T08:30:54.801Z,93.30
2023-09-07T08:33:30.345Z,79.40
2023-09-07T08:35:58.143Z,70.00
2023-09-07T08:38:28.978Z,1.00
2023-09-07T08:40:56.970Z,1.00
2023-09-07T08:43:24.708Z,1.00
2023-09-07T08:46:15.394Z,1.00
2023-09-07T08:48:45.306Z,90.60
2023-09-07T08:51:14.295Z,67.60
2023-09-07T08:53:42.310Z,61.60
2023-09-07T08:56:12.531Z,9.10
2023-09-07T08:58:41.251Z,8.30
2023-09-07T09:01:09.649Z,1.00
2023-09-07T09:03:37.929Z,1.00
2023-09-07T09:06:06.463Z,1.00
2023-09-07T09:08:48.558Z,1.00
2023-09-07T09:11:15.784Z,75.80
2023-09-07T09:13:43.774Z,71.00
2023-09-07T09:16:11.998Z,51.30
2023-09-07T09:18:39.241Z,61.90
2023-09-07T09:21:06.822Z,23.10
2023-09-07T09:23:34.042Z,1.00
2023-09-07T09:26:06.149Z,1.00
2023-09-07T09:28:34.581Z,1.00
2023-09-07T09:31:03.461Z,1.00
2023-09-07T09:33:34.254Z,1.00
2023-09-07T09:36:01.981Z,1.00
2023-09-07T09:38:28.919Z,1.00
2023-09-07T09:40:56.372Z,1.00
2023-09-07T09:43:23.520Z,94.50
2023-09-07T09:45:52.416Z,92.20
2023-09-07T09:48:23.688Z,87.00
2023-09-07T09:50:51.948Z,83.40
2023-09-07T09:53:24.110Z,81.40
2023-09-07T09:55:55.248Z,77.20
2023-09-07T09:58:22.266Z,76.00
2023-09-07T10:00:59.715Z,73.30
2023-09-07T10:03:32.387Z,72.90
2023-09-07T10:06:21.939Z,70.30
2023-09-07T10:09:08.455Z,64.00
2023-09-07T10:11:40.336Z,64.10
2023-09-07T10:14:09.045Z,61.60
2023-09-07T10:16:43.645Z,48.90
2023-09-07T10:19:24.519Z,55.30
2023-09-07T10:21:54.158Z,41.20
2023-09-07T10:24:27.261Z,30.00
2023-09-07T10:27:01.550Z,13.50
2023-09-07T10:29:29.866Z,6.80
2023-09-07T10:31:57.645Z,6.40
2023-09-07T10:34:40.350Z,1.00
2023-09-07T10:37:11.345Z,1.00
2023-09-07T10:39:40.036Z,1.00
2023-09-07T10:42:06.953Z,1.00
2023-09-07T10:44:33.751Z,1.00
2023-09-07T10:47:01.461Z,1.00
2023-09-07T10:49:28.425Z,1.00
2023-09-07T10:51:55.367Z,1.00
2023-09-07T10:54:26.582Z,1.00
2023-09-07T10:56:54.459Z,1.00
2023-09-07T10:59:21.314Z,1.00
2023-09-07T11:01:49.589Z,1.00
2023-09-07T11:04:18.785Z,1.00
2023-09-07T11:06:46.114Z,1.00
2023-09-07T11:09:13.147Z,1.00
2023-09-07T11:11:40.524Z,1.00
2023-09-07T11:14:07.583Z,1.00
2023-09-07T11:16:35.645Z,1.00
2023-09-07T11:19:06.645Z,1.00
2023-09-07T11:21:35.792Z,1.00
2023-09-07T11:24:05.827Z,96.20
2023-09-07T11:26:53.034Z,95.70
2023-09-07T11:29:20.102Z,95.70
2023-09-07T11:31:47.485Z,94.90
2023-09-07T11:34:16.149Z,94.50
2023-09-07T11:36:44.622Z,94.10
2023-09-07T11:39:13.696Z,94.00
2023-09-07T11:41:45.235Z,93.70
2023-09-07T11:44:12.910Z,92.80
2023-09-07T11:46:40.959Z,93.50
2023-09-07T11:49:10.275Z,94.10
2023-09-07T11:51:37.893Z,93.60
2023-09-07T11:54:05.700Z,93.50
2023-09-07T11:56:32.676Z,93.40
2023-09-07T11:58:59.557Z,91.80
2023-09-07T12:01:27.642Z,91.30
2023-09-07T12:03:54.645Z,91.50
2023-09-07T12:06:21.610Z,91.70
2023-09-07T12:09:08.152Z,90.70
2023-09-07T12:11:35.068Z,89.30
2023-09-07T12:14:02.160Z,86.20
2023-09-07T12:16:29.589Z,86.40
2023-09-07T12:18:56.664Z,87.20
2023-09-07T12:21:23.624Z,86.80
2023-09-07T12:23:50.446Z,86.30
2023-09-07T12:26:22.091Z,86.80
2023-09-07T12:28:49.710Z,84.50
2023-09-07T12:31:16.813Z,84.60
2023-09-07T12:33:44.481Z,82.50
2023-09-07T12:36:12.712Z,82.70
2023-09-07T12:38:39.649Z,81.90
2023-09-07T12:41:06.540Z,81.80
2023-09-07T12:43:33.805Z,80.90
2023-09-07T12:46:01.349Z,79.70
2023-09-07T12:48:28.228Z,79.90
2023-09-07T12:50:56.542Z,80.00
2023-09-07T12:53:26.810Z,78.60
2023-09-07T12:55:55.100Z,79.30
2023-09-07T12:58:22.082Z,79.00
2023-09-07T13:00:52.755Z,78.30
2023-09-07T13:03:20.598Z,76.00
2023-09-07T13:05:47.658Z,74.70
2023-09-07T13:08:14.507Z,74.40
2023-09-07T13:10:41.392Z,74.50
2023-09-07T13:13:08.687Z,75.00
2023-09-07T13:15:35.850Z,73.20
2023-09-07T13:18:03.028Z,73.20
2023-09-07T13:20:29.824Z,73.70
2023-09-07T13:22:57.853Z,74.30
2023-09-07T13:25:24.780Z,74.20
2023-09-07T13:27:51.580Z,73.50
2023-09-07T13:30:18.348Z,73.50
2023-09-07T13:32:47.885Z,72.30
2023-09-07T13:35:15.640Z,72.50
2023-09-07T13:37:42.623Z,72.20
2023-09-07T13:40:09.970Z,72.40
2023-09-07T13:42:36.828Z,71.10
2023-09-07T13:45:03.709Z,70.90
2023-09-07T13:47:30.496Z,69.10
2023-09-07T13:49:57.355Z,68.80
2023-09-07T13:52:24.188Z,68.70
2023-09-07T13:54:51.008Z,68.60
2023-09-07T13:57:17.789Z,67.90
2023-09-07T13:59:44.584Z,69.60
2023-09-07T14:02:11.395Z,67.50
2023-09-07T14:04:38.178Z,67.70
2023-09-07T14:07:05.094Z,67.50
2023-09-07T14:09:31.903Z,66.10
2023-09-07T14:11:58.692Z,65.80
2023-09-07T14:14:25.632Z,66.80
2023-09-07T14:16:57.707Z,65.60
2023-09-07T14:19:26.670Z,64.90
2023-09-07T14:21:54.656Z,65.40
2023-09-07T14:24:21.438Z,65.10
2023-09-07T14:26:48.241Z,65.50
2023-09-07T14:29:15.016Z,65.50
2023-09-07T14:31:43.319Z,65.20
2023-09-07T14:34:11.925Z,65.00
2023-09-07T14:36:38.764Z,64.40
2023-09-07T14:39:09.684Z,64.50
2023-09-07T14:41:37.130Z,64.70
2023-09-07T14:44:04.382Z,64.40
2023-09-07T14:46:31.600Z,65.10
2023-09-07T14:48:58.584Z,65.20
2023-09-07T14:51:25.611Z,65.40
2023-09-07T14:53:52.978Z,65.40
2023-09-07T14:56:20.112Z,65.70
2023-09-07T14:58:46.966Z,65.60
2023-09-07T15:01:13.825Z,66.00
2023-09-07T15:03:41.671Z,66.60
2023-09-07T15:06:12.646Z,66.30
2023-09-07T15:08:40.247Z,66.30
2023-09-07T15:11:07.256Z,65.60
2023-09-07T15:13:34.171Z,65.30
2023-09-07T15:16:01.164Z,65.80
2023-09-07T15:18:28.268Z,65.80
2023-09-07T15:20:55.282Z,66.00
2023-09-07T15:23:22.122Z,65.90
2023-09-07T15:25:49.169Z,66.40
2023-09-07T15:28:18.515Z,66.90
2023-09-07T15:30:45.340Z,66.00
2023-09-07T15:33:12.174Z,66.30
2023-09-07T15:35:39.142Z,66.00
2023-09-07T15:38:06.040Z,65.90
2023-09-07T15:40:33.031Z,66.20
2023-09-07T15:43:00.023Z,66.10
2023-09-07T15:45:26.858Z,66.20
2023-09-07T15:47:55.727Z,66.10
2023-09-07T15:50:22.835Z,66.10
2023-09-07T15:52:50.566Z,66.30
2023-09-07T15:55:19.189Z,67.00
2023-09-07T15:57:48.570Z,67.20
2023-09-07T16:00:16.601Z,67.40
2023-09-07T16:02:45.147Z,67.40
2023-09-07T16:05:12.406Z,68.00
2023-09-07T16:07:39.448Z,68.60
2023-09-07T16:10:07.121Z,69.80
2023-09-07T16:12:33.995Z,69.20
2023-09-07T16:15:00.878Z,69.10
2023-09-07T16:17:27.735Z,70.60
2023-09-07T16:19:54.666Z,70.40
2023-09-07T16:22:21.472Z,70.50
2023-09-07T16:24:48.428Z,71.70
2023-09-07T16:27:15.238Z,71.00
2023-09-07T16:29:44.585Z,72.30
2023-09-07T16:32:13.647Z,74.00
2023-09-07T16:34:41.873Z,73.50
2023-09-07T16:37:08.700Z,74.20
2023-09-07T16:39:35.569Z,75.00
2023-09-07T16:42:02.535Z,73.40
2023-09-07T16:44:29.490Z,73.80
2023-09-07T16:46:56.308Z,72.80
2023-09-07T16:49:23.324Z,74.50
2023-09-07T16:51:50.418Z,74.80
2023-09-07T16:54:17.418Z,74.70
2023-09-07T16:56:44.248Z,75.60
2023-09-07T17:01:41.373Z,76.00
2023-09-07T17:04:08.458Z,76.70
2023-09-07T17:06:35.960Z,78.70
2023-09-07T17:09:02.957Z,79.80
2023-09-07T17:11:29.843Z,81.90
2023-09-07T17:14:02.169Z,84.10
2023-09-07T17:16:30.206Z,85.60
2023-09-07T17:18:58.362Z,89.80
2023-09-07T17:21:25.396Z,90.40
2023-09-07T17:23:52.293Z,92.30
2023-09-07T17:26:19.410Z,94.30
2023-09-07T17:28:46.369Z,1.00
2023-09-07T17:31:16.557Z,1.00
2023-09-07T17:33:43.816Z,1.00
2023-09-07T17:36:16.047Z,1.00
2023-09-07T17:38:42.855Z,1.00
2023-09-07T17:41:12.444Z,1.00
2023-09-07T17:43:45.659Z,1.00
2023-09-07T17:46:12.569Z,10.30
2023-09-07T17:48:39.468Z,24.80
2023-09-07T17:51:06.446Z,60.10
2023-09-07T17:53:35.818Z,66.30
2023-09-07T17:56:12.901Z,71.10
2023-09-07T17:58:41.511Z,83.60
2023-09-07T18:01:13.731Z,84.50
2023-09-07T18:03:41.155Z,86.60
2023-09-07T18:06:09.098Z,90.00
2023-09-07T18:08:36.913Z,73.40
2023-09-07T18:11:04.803Z,66.90
2023-09-07T18:13:31.601Z,35.70
2023-09-07T18:15:59.339Z,14.10
2023-09-07T18:18:26.322Z,37.00
2023-09-07T18:20:53.850Z,44.90
2023-09-07T18:23:21.206Z,62.60
2023-09-07T18:25:48.076Z,66.50
2023-09-07T18:28:15.370Z,80.80
2023-09-07T18:30:43.080Z,93.80
2023-09-07T18:33:10.429Z,31.90
2023-09-07T18:35:37.830Z,94.10
2023-09-07T18:38:05.046Z,1.00
2023-09-07T18:40:32.531Z,46.30
2023-09-07T18:42:59.491Z,79.20
2023-09-07T18:45:29.527Z,1.00
2023-09-07T18:47:56.498Z,1.00
2023-09-07T18:50:24.980Z,1.00
2023-09-07T18:52:52.378Z,38.20
2023-09-07T18:55:19.944Z,66.00
2023-09-07T18:57:48.251Z,68.40
2023-09-07T19:00:16.622Z,90.30
2023-09-07T19:02:44.457Z,1.00
2023-09-07T19:05:11.576Z,1.00
2023-09-07T19:07:40.101Z,76.00
2023-09-07T19:10:08.273Z,1.00
2023-09-07T19:12:36.406Z,85.00
2023-09-07T19:15:04.001Z,1.00
2023-09-07T19:17:31.050Z,1.00
2023-09-07T19:20:00.863Z,51.70
2023-09-07T19:22:27.742Z,69.90
2023-09-07T19:24:54.798Z,80.00
2023-09-07T19:27:24.071Z,74.90
2023-09-07T19:29:52.127Z,85.90
2023-09-07T19:32:20.676Z,1.00
2023-09-07T19:34:47.711Z,30.10
2023-09-07T19:37:14.547Z,1.00
2023-09-07T19:39:41.419Z,61.90
2023-09-07T19:42:08.261Z,90.60
2023-09-07T19:44:35.156Z,1.00
2023-09-07T19:47:02.714Z,1.00
2023-09-07T19:49:29.755Z,1.00
2023-09-07T19:51:56.701Z,72.50
2023-09-07T19:54:23.578Z,78.20
2023-09-07T19:56:50.626Z,93.20
2023-09-07T19:59:17.478Z,91.20
2023-09-07T20:01:55.931Z,1.00
2023-09-07T20:04:24.055Z,1.00
2023-09-07T20:06:51.398Z,42.40
2023-09-07T20:09:19.030Z,79.30
2023-09-07T20:11:46.181Z,66.80
2023-09-07T20:14:13.222Z,84.90
2023-09-07T20:16:40.253Z,1.00
2023-09-07T20:19:08.509Z,1.00
2023-09-07T20:21:35.759Z,14.00
2023-09-07T20:24:02.632Z,2.60
2023-09-07T20:26:29.444Z,11.90
2023-09-07T20:28:56.791Z,52.70
2023-09-07T20:31:23.778Z,58.20
2023-09-07T20:33:50.828Z,60.90
2023-09-07T20:36:17.881Z,48.40
2023-09-07T20:38:45.808Z,61.50
2023-09-07T20:41:14.524Z,73.90
2023-09-07T20:43:43.284Z,86.00
2023-09-07T20:46:10.299Z,92.10
2023-09-07T20:48:37.408Z,1.00
2023-09-07T20:51:05.854Z,1.00
2023-09-07T20:53:33.558Z,1.00
2023-09-07T20:56:00.442Z,1.00
2023-09-07T20:58:27.366Z,1.00
2023-09-07T21:00:54.229Z,1.00
2023-09-07T21:03:21.123Z,1.00
2023-09-07T21:05:50.174Z,1.00
2023-09-07T21:08:17.181Z,1.00
2023-09-07T21:10:45.788Z,1.00
2023-09-07T21:13:13.389Z,1.00
2023-09-07T21:15:40.808Z,1.00
2023-09-07T21:18:07.959Z,1.00
2023-09-07T21:20:36.428Z,1.00
2023-09-07T21:23:04.195Z,6.80
2023-09-07T21:25:31.362Z,8.00
2023-09-07T21:27:58.715Z,15.20
2023-09-07T21:30:25.798Z,20.20
2023-09-07T21:32:52.834Z,19.90
2023-09-07T21:35:19.885Z,22.30
2023-09-07T21:37:46.772Z,42.80
2023-09-07T21:40:13.756Z,56.20
2023-09-07T21:42:40.924Z,60.60
2023-09-07T21:45:08.024Z,58.30
2023-09-07T21:47:35.440Z,60.30
2023-09-07T21:50:04.526Z,62.30
2023-09-07T21:52:31.561Z,62.60
2023-09-07T21:54:58.407Z,64.40
2023-09-07T21:57:25.593Z,64.50
2023-09-07T21:59:53.556Z,65.00
2023-09-07T22:02:22.340Z,66.90
2023-09-07T22:04:53.365Z,67.50
2023-09-07T22:07:20.409Z,67.70
2023-09-07T22:09:48.273Z,67.40
2023-09-07T22:12:15.207Z,68.40
2023-09-07T22:14:42.034Z,69.30
2023-09-07T22:17:08.868Z,69.50
2023-09-07T22:19:35.742Z,69.20
2023-09-07T22:22:02.626Z,70.40
2023-09-07T22:24:29.483Z,72.30
2023-09-07T22:26:58.427Z,73.00
2023-09-07T22:29:25.939Z,73.30
2023-09-07T22:31:52.862Z,73.90
2023-09-07T22:34:19.827Z,74.30
2023-09-07T22:36:46.801Z,74.50
2023-09-07T22:39:13.628Z,74.70
2023-09-07T22:41:41.241Z,74.60
2023-09-07T22:44:08.331Z,74.70
2023-09-07T22:46:35.300Z,75.10
2023-09-07T22:49:02.731Z,75.80
2023-09-07T22:51:29.797Z,76.60
2023-09-07T22:53:56.922Z,76.90
2023-09-07T22:56:23.821Z,77.40
2023-09-07T22:58:50.686Z,77.30
2023-09-07T23:01:18.127Z,77.30
2023-09-07T23:03:45.141Z,77.50
2023-09-07T23:06:12.460Z,78.30
2023-09-07T23:08:40.097Z,79.00
2023-09-07T23:11:08.368Z,79.40
2023-09-07T23:13:36.068Z,79.70
2023-09-07T23:16:04.056Z,79.90
2023-09-07T23:18:32.272Z,80.10
2023-09-07T23:20:59.389Z,80.40
2023-09-07T23:23:30.047Z,81.30
2023-09-07T23:25:57.250Z,82.10
2023-09-07T23:28:25.010Z,82.60
2023-09-07T23:30:55.320Z,83.00
2023-09-07T23:33:22.677Z,83.20
2023-09-07T23:35:49.866Z,83.30
2023-09-07T23:38:16.697Z,83.20
2023-09-07T23:40:44.030Z,83.20
2023-09-07T23:43:10.964Z,83.10
2023-09-07T23:45:38.052Z,83.10
2023-09-07T23:48:05.304Z,83.20
2023-09-07T23:50:33.319Z,83.10
2023-09-07T23:53:00.084Z,83.30
2023-09-07T23:55:26.865Z,83.40
2023-09-07T23:57:54.534Z,83.40
